createdAt,value
2023-04-27T00:01:01.507Z,4.98
2023-04-27T00:04:07.626Z,5.19
2023-04-27T00:07:13.854Z,5.07
2023-04-27T00:10:18.963Z,4.90
2023-04-27T00:13:25.557Z,5.03
2023-04-27T00:16:30.824Z,5.07
2023-04-27T00:19:35.897Z,4.81
2023-04-27T00:22:41.084Z,5.04
2023-04-27T00:25:46.140Z,4.80
2023-04-27T00:28:52.726Z,4.88
2023-04-27T00:31:57.996Z,4.75
2023-04-27T00:35:03.087Z,4.86
2023-04-27T00:38:08.221Z,4.76
2023-04-27T00:41:13.518Z,4.75
2023-04-27T00:44:26.311Z,4.71
2023-04-27T00:47:32.184Z,4.83
2023-04-27T00:50:38.862Z,4.75
2023-04-27T00:53:44.540Z,4.61
2023-04-27T00:56:51.157Z,4.74
2023-04-27T00:59:57.770Z,4.72
2023-04-27T01:03:03.109Z,4.68
2023-04-27T01:06:08.831Z,4.79
2023-04-27T01:09:14.248Z,4.75
2023-04-27T01:12:19.630Z,4.60
2023-04-27T01:15:26.453Z,4.77
2023-04-27T01:18:31.970Z,4.59
2023-04-27T01:21:37.160Z,4.45
2023-04-27T01:24:43.757Z,4.47
2023-04-27T01:27:48.775Z,4.52
2023-04-27T01:30:53.958Z,4.66
2023-04-27T01:33:59.518Z,4.54
2023-04-27T01:37:04.625Z,4.18
2023-04-27T01:40:12.405Z,4.37
2023-04-27T01:43:19.165Z,4.38
2023-04-27T01:46:24.482Z,4.48
2023-04-27T01:49:29.625Z,4.32
2023-04-27T01:52:34.790Z,4.43
2023-04-27T01:55:42.251Z,4.48
2023-04-27T01:58:47.416Z,4.45
2023-04-27T02:01:52.689Z,4.27
2023-04-27T02:04:57.874Z,3.96
2023-04-27T02:08:04.494Z,4.05
2023-04-27T02:11:11.345Z,4.23
2023-04-27T02:14:16.435Z,4.14
2023-04-27T02:17:21.812Z,4.09
2023-04-27T02:20:27.037Z,4.06
2023-04-27T02:23:32.060Z,4.17
2023-04-27T02:26:38.577Z,4.14
2023-04-27T02:29:44.213Z,4.32
2023-04-27T02:32:49.933Z,4.18
2023-04-27T02:35:55.161Z,4.07
2023-04-27T02:39:00.292Z,4.15
2023-04-27T02:42:06.977Z,4.05
2023-04-27T02:45:14.176Z,4.02
2023-04-27T02:48:19.411Z,4.04
2023-04-27T02:51:24.506Z,4.01
2023-04-27T02:54:29.654Z,3.93
2023-04-27T02:57:36.732Z,4.01
2023-04-27T03:00:42.191Z,3.93
2023-04-27T03:03:48.839Z,3.94
2023-04-27T03:06:54.019Z,3.77
2023-04-27T03:09:59.297Z,3.67
2023-04-27T03:13:06.220Z,3.56
2023-04-27T03:16:13.746Z,3.54
2023-04-27T03:19:18.867Z,3.67
2023-04-27T03:22:24.182Z,3.80
2023-04-27T03:25:31.403Z,3.90
2023-04-27T03:28:37.917Z,3.91
2023-04-27T03:31:43.619Z,3.94
2023-04-27T03:34:48.860Z,3.90
2023-04-27T03:37:54.017Z,3.91
2023-04-27T03:40:59.674Z,3.91
2023-04-27T03:44:06.263Z,3.95
2023-04-27T03:47:12.662Z,3.88
2023-04-27T03:50:18.936Z,3.97
2023-04-27T03:53:24.186Z,3.97
2023-04-27T03:56:30.046Z,3.96
2023-04-27T03:59:36.842Z,4.07
2023-04-27T04:02:42.679Z,4.06
2023-04-27T04:05:48.307Z,4.03
2023-04-27T04:08:53.454Z,4.14
2023-04-27T04:11:59.431Z,4.09
2023-04-27T04:15:06.584Z,4.29
2023-04-27T04:18:13.248Z,4.19
2023-04-27T04:21:18.543Z,4.37
2023-04-27T04:24:23.724Z,4.32
2023-04-27T04:27:28.833Z,4.38
2023-04-27T04:30:35.472Z,4.45
2023-04-27T04:33:40.664Z,4.41
2023-04-27T04:36:46.026Z,4.47
2023-04-27T04:39:51.156Z,4.57
2023-04-27T04:42:56.433Z,4.58
2023-04-27T04:46:04.307Z,4.75
2023-04-27T04:49:09.505Z,4.75
2023-04-27T04:52:15.342Z,4.74
2023-04-27T04:55:20.657Z,4.87
2023-04-27T04:58:25.890Z,4.75
2023-04-27T05:01:32.619Z,4.91
2023-04-27T05:04:38.223Z,5.05
2023-04-27T05:07:43.477Z,5.09
2023-04-27T05:10:51.831Z,5.13
2023-04-27T05:13:57.011Z,5.07
2023-04-27T05:17:03.699Z,5.18
2023-04-27T05:20:10.100Z,5.18
2023-04-27T05:23:15.270Z,5.29
2023-04-27T05:26:21.257Z,5.20
2023-04-27T05:29:27.376Z,5.26
2023-04-27T05:32:36.944Z,5.39
2023-04-27T05:35:42.112Z,5.49
2023-04-27T05:38:47.365Z,5.46
2023-04-27T05:41:54.111Z,5.61
2023-04-27T05:44:59.244Z,5.65
2023-04-27T05:48:05.867Z,5.72
2023-04-27T05:51:11.695Z,5.81
2023-04-27T05:54:16.874Z,5.87
2023-04-27T05:57:22.019Z,5.99
2023-04-27T06:00:27.163Z,6.08
2023-04-27T06:03:34.050Z,6.11
2023-04-27T06:06:39.790Z,6.18
2023-04-27T06:09:44.943Z,6.27
2023-04-27T06:12:50.130Z,6.39
2023-04-27T06:15:55.401Z,6.49
2023-04-27T06:19:01.917Z,6.67
2023-04-27T06:22:07.167Z,6.86
2023-04-27T06:25:12.921Z,7.07
2023-04-27T06:28:18.455Z,7.20
2023-04-27T06:31:24.008Z,7.24
2023-04-27T06:34:30.759Z,7.17
2023-04-27T06:37:36.083Z,7.49
2023-04-27T06:40:41.684Z,7.41
2023-04-27T06:43:46.990Z,7.81
2023-04-27T06:46:52.456Z,7.90
2023-04-27T06:49:59.065Z,7.92
2023-04-27T06:53:04.469Z,8.09
2023-04-27T06:56:13.099Z,8.07
2023-04-27T06:59:18.366Z,8.16
2023-04-27T07:02:25.450Z,8.28
2023-04-27T07:05:32.665Z,8.48
2023-04-27T07:08:38.259Z,8.51
2023-04-27T07:11:43.775Z,8.57
2023-04-27T07:14:50.873Z,8.68
2023-04-27T07:17:56.447Z,8.63
2023-04-27T07:21:03.177Z,8.63
2023-04-27T07:24:08.798Z,8.65
2023-04-27T07:27:15.237Z,8.67
2023-04-27T07:30:20.569Z,8.49
2023-04-27T07:33:27.994Z,8.72
2023-04-27T07:36:34.561Z,8.63
2023-04-27T07:39:39.595Z,8.74
2023-04-27T07:42:45.004Z,8.78
2023-04-27T07:45:50.502Z,8.80
2023-04-27T07:48:59.326Z,8.89
2023-04-27T07:52:06.750Z,8.75
2023-04-27T07:55:13.361Z,8.70
2023-04-27T07:58:19.994Z,8.79
2023-04-27T08:01:25.289Z,8.73
2023-04-27T08:04:30.910Z,8.77
2023-04-27T08:07:44.138Z,8.90
2023-04-27T08:10:50.045Z,8.85
2023-04-27T08:13:55.158Z,8.89
2023-04-27T08:17:00.372Z,8.95
2023-04-27T08:20:07.958Z,8.82
2023-04-27T08:23:14.357Z,8.87
2023-04-27T08:26:19.531Z,8.79
2023-04-27T08:29:28.631Z,8.90
2023-04-27T08:32:34.484Z,8.81
2023-04-27T08:35:39.721Z,8.68
2023-04-27T08:38:46.858Z,8.73
2023-04-27T08:41:52.030Z,8.62
2023-04-27T08:44:57.245Z,8.55
2023-04-27T08:48:02.582Z,8.66
2023-04-27T08:51:10.400Z,8.73
2023-04-27T08:54:19.658Z,8.71
2023-04-27T08:57:24.818Z,8.83
2023-04-27T09:00:38.782Z,8.93
2023-04-27T09:03:46.832Z,8.74
2023-04-27T09:06:52.068Z,8.80
2023-04-27T09:10:06.094Z,8.81
2023-04-27T09:13:12.044Z,8.86
2023-04-27T09:16:17.629Z,8.44
2023-04-27T09:19:26.378Z,8.42
2023-04-27T09:22:31.593Z,8.64
2023-04-27T09:25:38.036Z,8.69
2023-04-27T09:28:50.367Z,8.82
2023-04-27T09:31:55.842Z,8.83
2023-04-27T09:35:01.227Z,8.64
2023-04-27T09:38:06.651Z,8.20
2023-04-27T09:41:15.476Z,8.15
2023-04-27T09:44:21.039Z,8.12
2023-04-27T09:47:28.745Z,8.47
2023-04-27T09:50:38.241Z,8.55
2023-04-27T09:53:48.162Z,8.59
2023-04-27T09:57:02.985Z,8.79
2023-04-27T10:00:21.206Z,8.88
2023-04-27T10:03:44.305Z,8.94
2023-04-27T10:07:01.483Z,8.78
2023-04-27T10:10:07.510Z,8.86
2023-04-27T10:13:23.926Z,9.01
2023-04-27T10:16:29.379Z,9.24
2023-04-27T10:19:35.011Z,9.19
2023-04-27T10:22:41.634Z,9.18
2023-04-27T10:25:48.842Z,9.25
2023-04-27T10:29:07.591Z,9.11
2023-04-27T10:32:14.331Z,9.22
2023-04-27T10:35:20.296Z,9.41
2023-04-27T10:38:30.540Z,9.32
2023-04-27T10:41:38.698Z,9.40
2023-04-27T10:45:02.132Z,9.10
2023-04-27T10:48:08.395Z,9.36
2023-04-27T10:51:17.549Z,9.46
2023-04-27T10:54:22.813Z,9.42
2023-04-27T10:57:29.586Z,9.04
2023-04-27T11:00:44.984Z,9.12
2023-04-27T11:03:57.914Z,8.63
2023-04-27T11:07:04.727Z,8.57
2023-04-27T11:10:11.232Z,8.37
2023-04-27T11:13:17.587Z,8.18
2023-04-27T11:16:24.448Z,7.99
2023-04-27T11:19:31.293Z,7.90
2023-04-27T11:22:37.178Z,8.29
2023-04-27T11:25:42.308Z,8.30
2023-04-27T11:28:58.901Z,8.22
2023-04-27T11:32:05.805Z,8.20
2023-04-27T11:35:11.829Z,7.86
2023-04-27T11:38:19.036Z,7.38
2023-04-27T11:41:24.486Z,7.55
2023-04-27T11:44:30.005Z,7.45
2023-04-27T11:47:36.832Z,7.70
2023-04-27T11:50:42.830Z,7.73
2023-04-27T11:53:51.321Z,7.72
2023-04-27T11:57:06.598Z,7.71
2023-04-27T12:00:15.474Z,7.98
2023-04-27T12:03:22.133Z,7.81
2023-04-27T12:06:33.221Z,7.57
2023-04-27T12:09:38.950Z,7.54
2023-04-27T12:12:44.658Z,7.80
2023-04-27T12:15:49.763Z,7.53
2023-04-27T12:18:56.598Z,7.81
2023-04-27T12:22:01.828Z,7.83
2023-04-27T12:25:07.919Z,7.83
2023-04-27T12:28:19.295Z,8.28
2023-04-27T12:31:27.700Z,8.38
2023-04-27T12:34:34.847Z,8.34
2023-04-27T12:37:40.188Z,8.31
2023-04-27T12:40:45.525Z,8.38
2023-04-27T12:43:50.850Z,8.53
2023-04-27T12:46:57.081Z,8.36
2023-04-27T12:50:05.816Z,8.01
2023-04-27T12:53:11.097Z,8.30
2023-04-27T12:56:16.486Z,8.33
2023-04-27T12:59:21.751Z,8.57
2023-04-27T13:02:28.887Z,8.27
2023-04-27T13:05:35.986Z,8.09
2023-04-27T13:08:42.236Z,8.50
2023-04-27T13:11:47.317Z,8.27
2023-04-27T13:14:52.506Z,8.23
2023-04-27T13:17:59.322Z,8.40
2023-04-27T13:21:06.812Z,8.17
2023-04-27T13:24:14.072Z,7.89
2023-04-27T13:27:20.461Z,8.12
2023-04-27T13:30:25.746Z,8.33
2023-04-27T13:33:31.039Z,8.59
2023-04-27T13:36:37.496Z,8.37
2023-04-27T13:39:42.580Z,8.20
2023-04-27T13:42:47.514Z,8.26
2023-04-27T13:45:54.626Z,8.07
2023-04-27T13:48:59.665Z,8.13
2023-04-27T13:52:06.316Z,7.83
2023-04-27T13:55:13.729Z,8.00
2023-04-27T13:58:19.293Z,8.36
2023-04-27T14:01:25.114Z,8.31
2023-04-27T14:04:30.342Z,8.67
2023-04-27T14:07:38.750Z,8.83
2023-04-27T14:10:44.063Z,9.07
2023-04-27T14:13:50.298Z,8.90
2023-04-27T14:16:56.948Z,8.39
2023-04-27T14:20:02.311Z,8.53
2023-04-27T14:23:09.143Z,8.55
2023-04-27T14:26:14.373Z,8.65
2023-04-27T14:29:19.733Z,8.80
2023-04-27T14:32:25.134Z,8.84
2023-04-27T14:35:30.466Z,9.16
2023-04-27T14:38:36.958Z,9.43
2023-04-27T14:41:42.080Z,9.48
2023-04-27T14:44:49.637Z,9.10
2023-04-27T14:47:55.129Z,9.10
2023-04-27T14:51:00.322Z,9.09
2023-04-27T14:54:08.049Z,9.07
2023-04-27T14:57:13.119Z,9.14
2023-04-27T15:00:19.050Z,8.91
2023-04-27T15:03:24.370Z,8.89
2023-04-27T15:06:30.461Z,9.01
2023-04-27T15:09:37.697Z,9.06
2023-04-27T15:12:42.922Z,9.16
2023-04-27T15:15:49.487Z,9.27
2023-04-27T15:18:54.740Z,9.16
2023-04-27T15:21:59.865Z,9.23
2023-04-27T15:25:07.188Z,8.99
2023-04-27T15:28:14.389Z,9.16
2023-04-27T15:31:19.586Z,9.40
2023-04-27T15:34:24.735Z,9.53
2023-04-27T15:37:30.653Z,9.44
2023-04-27T15:40:37.311Z,9.27
2023-04-27T15:43:42.421Z,9.36
2023-04-27T15:46:47.573Z,9.14
2023-04-27T15:49:57.611Z,9.22
2023-04-27T15:53:03.265Z,9.23
2023-04-27T15:56:09.898Z,9.05
2023-04-27T15:59:15.185Z,8.93
2023-04-27T16:02:20.945Z,8.83
2023-04-27T16:05:26.210Z,8.86
2023-04-27T16:08:32.542Z,8.88
2023-04-27T16:11:39.203Z,8.83
2023-04-27T16:14:44.574Z,8.62
2023-04-27T16:17:49.775Z,8.07
2023-04-27T16:20:55.176Z,8.05
2023-04-27T16:24:00.211Z,8.09
2023-04-27T16:27:07.395Z,8.00
2023-04-27T16:30:14.785Z,7.97
2023-04-27T16:33:21.396Z,8.02
2023-04-27T16:36:28.268Z,7.62
2023-04-27T16:39:33.447Z,7.55
2023-04-27T16:42:39.907Z,7.86
2023-04-27T16:45:45.119Z,7.88
2023-04-27T16:48:50.239Z,7.99
2023-04-27T16:51:56.357Z,7.87
2023-04-27T16:55:01.484Z,7.72
2023-04-27T16:58:08.307Z,7.84
2023-04-27T17:01:13.448Z,7.71
2023-04-27T17:04:18.859Z,7.85
2023-04-27T17:07:28.700Z,7.73
2023-04-27T17:10:38.432Z,7.85
2023-04-27T17:13:45.071Z,7.64
2023-04-27T17:16:50.227Z,7.51
2023-04-27T17:19:55.428Z,7.52
2023-04-27T17:23:00.678Z,7.52
2023-04-27T17:26:07.916Z,7.58
2023-04-27T17:29:16.285Z,7.56
2023-04-27T17:32:21.491Z,7.51
2023-04-27T17:35:26.990Z,7.45
2023-04-27T17:38:32.143Z,7.58
2023-04-27T17:41:37.456Z,7.66
2023-04-27T17:44:45.304Z,7.72
2023-04-27T17:47:50.895Z,7.76
2023-04-27T17:50:56.200Z,7.56
2023-04-27T17:54:01.580Z,7.57
2023-04-27T17:57:06.661Z,7.64
2023-04-27T18:00:18.188Z,7.58
2023-04-27T18:03:24.631Z,7.41
2023-04-27T18:06:30.143Z,7.33
2023-04-27T18:09:35.467Z,7.19
2023-04-27T18:12:41.060Z,7.23
2023-04-27T18:15:47.610Z,7.25
2023-04-27T18:18:53.194Z,7.26
2023-04-27T18:21:58.273Z,7.11
2023-04-27T18:25:03.609Z,7.14
2023-04-27T18:28:08.928Z,7.06
2023-04-27T18:31:20.277Z,7.01
2023-04-27T18:34:25.911Z,7.16
2023-04-27T18:37:31.593Z,7.14
2023-04-27T18:40:37.303Z,7.14
2023-04-27T18:43:42.546Z,7.17
2023-04-27T18:46:49.054Z,7.00
2023-04-27T18:49:54.341Z,7.00
2023-04-27T18:53:01.774Z,7.05
2023-04-27T18:56:09.507Z,7.09
2023-04-27T18:59:17.675Z,7.21
2023-04-27T19:02:25.985Z,7.10
2023-04-27T19:05:33.782Z,7.15
2023-04-27T19:08:39.343Z,7.19
2023-04-27T19:11:46.638Z,7.03
2023-04-27T19:14:55.067Z,7.13
2023-04-27T19:18:07.048Z,7.12
2023-04-27T19:21:18.142Z,7.07
2023-04-27T19:24:24.913Z,7.03
2023-04-27T19:27:30.514Z,6.79
2023-04-27T19:30:35.877Z,6.92
2023-04-27T19:36:51.178Z,6.81
2023-04-27T19:39:56.499Z,6.79
2023-04-27T19:43:01.740Z,6.94
2023-04-27T19:46:07.169Z,6.79
2023-04-27T19:49:25.560Z,6.71
2023-04-27T19:52:32.310Z,6.64
2023-04-27T19:55:38.213Z,6.62
2023-04-27T19:58:43.909Z,6.62
2023-04-27T20:01:49.160Z,6.62
2023-04-27T20:04:56.384Z,6.61
2023-04-27T20:08:02.085Z,6.69
2023-04-27T20:11:07.506Z,6.50
2023-04-27T20:14:14.153Z,6.53
2023-04-27T20:17:20.380Z,6.48
2023-04-27T20:20:26.993Z,6.45
2023-04-27T20:23:32.285Z,6.28
2023-04-27T20:26:37.454Z,6.47
2023-04-27T20:29:44.926Z,6.29
2023-04-27T20:32:50.076Z,6.22
2023-04-27T20:36:03.550Z,6.24
2023-04-27T20:39:15.734Z,6.32
2023-04-27T20:42:21.141Z,6.30
2023-04-27T20:45:26.583Z,6.18
2023-04-27T20:48:31.992Z,6.23
2023-04-27T20:51:38.527Z,6.19
2023-04-27T20:54:43.765Z,6.15
2023-04-27T20:57:48.894Z,6.15
2023-04-27T21:00:54.056Z,6.08
2023-04-27T21:03:59.237Z,6.19
2023-04-27T21:07:06.060Z,6.12
2023-04-27T21:10:12.889Z,6.02
2023-04-27T21:13:18.007Z,6.07
2023-04-27T21:16:23.237Z,6.02
2023-04-27T21:19:28.420Z,5.84
2023-04-27T21:22:35.225Z,5.88
2023-04-27T21:25:40.594Z,5.95
2023-04-27T21:28:46.261Z,6.13
2023-04-27T21:31:51.335Z,5.91
2023-04-27T21:34:56.782Z,6.07
2023-04-27T21:38:03.350Z,5.99
2023-04-27T21:41:08.766Z,5.96
2023-04-27T21:44:14.525Z,5.84
2023-04-27T21:47:19.880Z,5.89
2023-04-27T21:50:25.186Z,5.87
2023-04-27T21:53:31.814Z,5.87
2023-04-27T21:56:37.694Z,5.91
2023-04-27T21:59:43.044Z,5.81
2023-04-27T22:02:48.556Z,5.88
2023-04-27T22:05:54.107Z,5.65
2023-04-27T22:09:00.905Z,5.76
2023-04-27T22:12:07.123Z,5.80
2023-04-27T22:15:13.118Z,5.67
2023-04-27T22:18:18.718Z,5.67
2023-04-27T22:21:24.053Z,5.65
2023-04-27T22:24:30.667Z,5.75
2023-04-27T22:27:44.516Z,5.75
2023-04-27T22:30:50.573Z,5.63
2023-04-27T22:33:55.979Z,5.66
2023-04-27T22:37:02.150Z,5.61
2023-04-27T22:40:10.986Z,5.66
2023-04-27T22:43:16.643Z,5.58
2023-04-27T22:46:23.252Z,5.60
2023-04-27T22:49:28.953Z,5.55
2023-04-27T22:52:34.262Z,5.36
2023-04-27T22:55:40.774Z,5.52
2023-04-27T22:58:46.678Z,5.45
2023-04-27T23:01:52.143Z,5.48
2023-04-27T23:04:58.718Z,5.40
2023-04-27T23:08:05.663Z,5.30
2023-04-27T23:11:15.557Z,5.32
2023-04-27T23:14:21.119Z,5.38
2023-04-27T23:17:30.586Z,5.40
2023-04-27T23:20:36.085Z,5.43
2023-04-27T23:23:41.276Z,5.50
2023-04-27T23:26:47.746Z,5.49
2023-04-27T23:29:53.128Z,5.56
2023-04-27T23:32:58.610Z,5.49
2023-04-27T23:36:04.600Z,5.63
2023-04-27T23:39:10.073Z,5.53
2023-04-27T23:42:16.694Z,5.52
2023-04-27T23:45:22.062Z,5.41
2023-04-27T23:48:27.397Z,5.33
2023-04-27T23:51:32.810Z,5.43
2023-04-27T23:54:37.970Z,5.30
2023-04-27T23:57:44.996Z,5.20
